sensor_id;sensor_type;location;lat;lon;timestamp;temperature;humidity
52113;DHT22;38109;49.488;31.988;2022-09-01T03:22:23;16.40;72.70
52113;DHT22;38109;49.488;31.988;2022-09-01T03:24:59;16.40;72.80
52113;DHT22;38109;49.488;31.988;2022-09-01T03:27:24;16.40;72.70
52113;DHT22;38109;49.488;31.988;2022-09-01T03:33:49;16.30;72.60
52113;DHT22;38109;49.488;31.988;2022-09-01T03:51:30;16.30;73.10
52113;DHT22;38109;49.488;31.988;2022-09-01T03:54:18;16.30;73.10
52113;DHT22;38109;49.488;31.988;2022-09-01T03:56:51;16.30;73.20
52113;DHT22;38109;49.488;31.988;2022-09-01T03:59:47;16.30;73.30
52113;DHT22;38109;49.488;31.988;2022-09-01T04:02:47;16.40;73.40
52113;DHT22;38109;49.488;31.988;2022-09-01T04:05:31;16.40;73.40
52113;DHT22;38109;49.488;31.988;2022-09-01T04:08:09;16.40;73.50
52113;DHT22;38109;49.488;31.988;2022-09-01T04:10:44;16.50;73.50
52113;DHT22;38109;49.488;31.988;2022-09-01T04:13:25;16.50;73.70
52113;DHT22;38109;49.488;31.988;2022-09-01T04:35:39;17.00;74.00
52113;DHT22;38109;49.488;31.988;2022-09-01T04:50:39;17.30;73.70
52113;DHT22;38109;49.488;31.988;2022-09-01T04:53:14;17.40;73.60
52113;DHT22;38109;49.488;31.988;2022-09-01T04:55:44;17.50;73.50
52113;DHT22;38109;49.488;31.988;2022-09-01T04:58:15;17.60;73.50
52113;DHT22;38109;49.488;31.988;2022-09-01T05:00:49;17.60;73.40
52113;DHT22;38109;49.488;31.988;2022-09-01T05:03:18;17.70;73.20
52113;DHT22;38109;49.488;31.988;2022-09-01T06:11:50;18.80;70.90
52113;DHT22;38109;49.488;31.988;2022-09-01T06:14:24;18.80;71.20
52113;DHT22;38109;49.488;31.988;2022-09-01T06:16:53;18.90;71.00
52113;DHT22;38109;49.488;31.988;2022-09-01T06:19:19;18.90;71.00
52113;DHT22;38109;49.488;31.988;2022-09-01T06:21:51;19.00;70.90
52113;DHT22;38109;49.488;31.988;2022-09-01T06:24:59;19.00;70.50
52113;DHT22;38109;49.488;31.988;2022-09-01T06:28:00;19.10;70.30
52113;DHT22;38109;49.488;31.988;2022-09-01T06:30:51;19.10;70.20
52113;DHT22;38109;49.488;31.988;2022-09-01T07:11:37;20.40;67.10
52113;DHT22;38109;49.488;31.988;2022-09-01T07:14:04;20.50;66.70
52113;DHT22;38109;49.488;31.988;2022-09-01T07:16:33;20.50;66.60
52113;DHT22;38109;49.488;31.988;2022-09-01T07:19:06;20.60;66.10
52113;DHT22;38109;49.488;31.988;2022-09-01T07:21:37;20.60;65.50
52113;DHT22;38109;49.488;31.988;2022-09-01T07:24:06;20.70;65.00
52113;DHT22;38109;49.488;31.988;2022-09-01T07:26:33;20.80;64.60
52113;DHT22;38109;49.488;31.988;2022-09-01T07:29:00;20.80;63.70
52113;DHT22;38109;49.488;31.988;2022-09-01T07:31:37;20.80;63.30
52113;DHT22;38109;49.488;31.988;2022-09-01T07:34:07;20.80;62.70
52113;DHT22;38109;49.488;31.988;2022-09-01T07:36:34;20.80;62.40
52113;DHT22;38109;49.488;31.988;2022-09-01T07:39:02;20.80;62.20
52113;DHT22;38109;49.488;31.988;2022-09-01T07:41:46;20.80;62.40
52113;DHT22;38109;49.488;31.988;2022-09-01T07:44:14;20.90;61.90
52113;DHT22;38109;49.488;31.988;2022-09-01T07:46:41;20.90;61.30
52113;DHT22;38109;49.488;31.988;2022-09-01T07:49:08;21.00;60.80
52113;DHT22;38109;49.488;31.988;2022-09-01T13:51:49;23.10;44.00
52113;DHT22;38109;49.488;31.988;2022-09-01T13:54:16;23.20;44.10
52113;DHT22;38109;49.488;31.988;2022-09-01T13:56:41;23.20;44.20
52113;DHT22;38109;49.488;31.988;2022-09-01T13:59:08;23.30;44.50
52113;DHT22;38109;49.488;31.988;2022-09-01T14:01:34;23.30;44.50
52113;DHT22;38109;49.488;31.988;2022-09-01T14:03:59;23.50;44.50
52113;DHT22;38109;49.488;31.988;2022-09-01T14:06:26;23.50;44.60
52113;DHT22;38109;49.488;31.988;2022-09-01T14:08:51;23.60;44.60
52113;DHT22;38109;49.488;31.988;2022-09-01T14:11:17;23.60;44.50
52113;DHT22;38109;49.488;31.988;2022-09-01T14:13:44;23.70;44.60
52113;DHT22;38109;49.488;31.988;2022-09-01T14:16:13;23.70;44.50
52113;DHT22;38109;49.488;31.988;2022-09-01T15:17:08;24.30;42.90
52113;DHT22;38109;49.488;31.988;2022-09-01T15:19:43;24.40;42.80
52113;DHT22;38109;49.488;31.988;2022-09-01T15:30:07;25.50;41.70
52113;DHT22;38109;49.488;31.988;2022-09-01T15:32:56;25.40;41.40
52113;DHT22;38109;49.488;31.988;2022-09-01T15:35:48;25.20;41.50
52113;DHT22;38109;49.488;31.988;2022-09-01T15:42:23;24.60;42.80
52113;DHT22;38109;49.488;31.988;2022-09-01T15:52:08;23.90;44.30
52113;DHT22;38109;49.488;31.988;2022-09-01T16:19:58;22.30;46.10
52113;DHT22;38109;49.488;31.988;2022-09-01T16:25:48;22.10;46.30
52113;DHT22;38109;49.488;31.988;2022-09-01T16:28:38;22.00;46.40
52113;DHT22;38109;49.488;31.988;2022-09-01T16:31:18;21.80;46.30
52113;DHT22;38109;49.488;31.988;2022-09-01T16:33:51;21.70;46.60
52113;DHT22;38109;49.488;31.988;2022-09-01T16:42:50;21.40;47.10
52113;DHT22;38109;49.488;31.988;2022-09-01T16:46:00;21.30;47.40
52113;DHT22;38109;49.488;31.988;2022-09-01T16:56:52;21.10;48.70
52113;DHT22;38109;49.488;31.988;2022-09-01T16:59:53;21.00;48.90
52113;DHT22;38109;49.488;31.988;2022-09-01T17:02:33;20.90;49.10
52113;DHT22;38109;49.488;31.988;2022-09-01T17:07:39;20.80;49.50
52113;DHT22;38109;49.488;31.988;2022-09-01T17:10:34;20.70;49.60
52113;DHT22;38109;49.488;31.988;2022-09-01T17:13:50;20.70;49.80
52113;DHT22;38109;49.488;31.988;2022-09-01T17:16:47;20.60;50.00
52113;DHT22;38109;49.488;31.988;2022-09-01T17:19:21;20.50;50.10
52113;DHT22;38109;49.488;31.988;2022-09-01T17:21:49;20.40;50.30
52113;DHT22;38109;49.488;31.988;2022-09-01T17:24:41;20.40;50.50
52113;DHT22;38109;49.488;31.988;2022-09-01T17:45:44;19.80;52.50
52113;DHT22;38109;49.488;31.988;2022-09-01T17:48:51;19.80;52.70
52113;DHT22;38109;49.488;31.988;2022-09-01T17:51:43;19.70;52.80
52113;DHT22;38109;49.488;31.988;2022-09-01T18:00:08;19.40;53.90
52113;DHT22;38109;49.488;31.988;2022-09-01T18:02:58;19.30;54.10
52113;DHT22;38109;49.488;31.988;2022-09-01T18:05:42;19.20;54.50
52113;DHT22;38109;49.488;31.988;2022-09-01T18:11:15;19.10;54.90
52113;DHT22;38109;49.488;31.988;2022-09-01T18:13:52;18.90;55.00
52113;DHT22;38109;49.488;31.988;2022-09-01T18:16:24;18.80;55.20
52113;DHT22;38109;49.488;31.988;2022-09-01T18:18:51;18.80;55.40
52113;DHT22;38109;49.488;31.988;2022-09-01T18:21:41;18.70;55.60
52113;DHT22;38109;49.488;31.988;2022-09-01T18:40:06;18.30;56.40
52113;DHT22;38109;49.488;31.988;2022-09-01T18:45:27;18.20;56.70
52113;DHT22;38109;49.488;31.988;2022-09-01T18:50:59;18.00;56.90
52113;DHT22;38109;49.488;31.988;2022-09-01T19:04:40;17.60;57.40
52113;DHT22;38109;49.488;31.988;2022-09-01T19:07:25;17.50;57.60
52113;DHT22;38109;49.488;31.988;2022-09-01T19:10:19;17.40;57.70
52113;DHT22;38109;49.488;31.988;2022-09-01T19:15:49;17.30;57.90
52113;DHT22;38109;49.488;31.988;2022-09-01T19:23:45;17.10;58.50
52113;DHT22;38109;49.488;31.988;2022-09-01T19:26:22;17.00;58.50
52113;DHT22;38109;49.488;31.988;2022-09-01T19:29:14;17.00;58.90
52113;DHT22;38109;49.488;31.988;2022-09-01T19:31:46;16.90;59.00
52113;DHT22;38109;49.488;31.988;2022-09-01T19:38:28;16.80;59.30
52113;DHT22;38109;49.488;31.988;2022-09-01T19:55:28;16.30;59.80
